sensor_id;sensor_type;location;lat;lon;timestamp;P1;durP1;ratioP1;P2;durP2;ratioP2
14187;SDS011;7175;51.978;5.330;2023-11-19T00:00:19;84.63;;;78.23;;
14187;SDS011;7175;51.978;5.330;2023-11-19T00:02:48;85.50;;;79.10;;
14187;SDS011;7175;51.978;5.330;2023-11-19T00:05:17;80.77;;;74.57;;
14187;SDS011;7175;51.978;5.330;2023-11-19T00:07:45;80.03;;;73.93;;
14187;SDS011;7175;51.978;5.330;2023-11-19T00:10:15;76.90;;;70.90;;
14187;SDS011;7175;51.978;5.330;2023-11-19T00:12:45;76.90;;;71.00;;
14187;SDS011;7175;51.978;5.330;2023-11-19T00:15:15;76.37;;;70.47;;
14187;SDS011;7175;51.978;5.330;2023-11-19T00:17:46;77.20;;;71.30;;
14187;SDS011;7175;51.978;5.330;2023-11-19T00:20:16;80.03;;;74.00;;
14187;SDS011;7175;51.978;5.330;2023-11-19T00:22:45;76.13;;;70.27;;
14187;SDS011;7175;51.978;5.330;2023-11-19T00:25:17;75.67;;;69.80;;
14187;SDS011;7175;51.978;5.330;2023-11-19T00:27:46;77.77;;;71.83;;
14187;SDS011;7175;51.978;5.330;2023-11-19T00:30:14;82.90;;;76.77;;
14187;SDS011;7175;51.978;5.330;2023-11-19T00:32:43;81.77;;;75.67;;
14187;SDS011;7175;51.978;5.330;2023-11-19T00:35:12;82.97;;;76.77;;
14187;SDS011;7175;51.978;5.330;2023-11-19T00:37:41;79.83;;;73.83;;
14187;SDS011;7175;51.978;5.330;2023-11-19T00:40:12;85.43;;;79.13;;
14187;SDS011;7175;51.978;5.330;2023-11-19T00:42:44;84.23;;;78.03;;
14187;SDS011;7175;51.978;5.330;2023-11-19T00:45:13;83.70;;;77.50;;
14187;SDS011;7175;51.978;5.330;2023-11-19T00:47:41;78.90;;;73.00;;
14187;SDS011;7175;51.978;5.330;2023-11-19T00:50:09;84.10;;;77.90;;
14187;SDS011;7175;51.978;5.330;2023-11-19T00:52:39;81.93;;;75.83;;
14187;SDS011;7175;51.978;5.330;2023-11-19T00:55:07;78.30;;;72.40;;
14187;SDS011;7175;51.978;5.330;2023-11-19T00:57:36;81.83;;;75.73;;
14187;SDS011;7175;51.978;5.330;2023-11-19T01:00:07;82.27;;;76.07;;
14187;SDS011;7175;51.978;5.330;2023-11-19T01:02:46;81.60;;;75.47;;
14187;SDS011;7175;51.978;5.330;2023-11-19T01:05:17;79.07;;;73.07;;
14187;SDS011;7175;51.978;5.330;2023-11-19T01:07:48;80.40;;;74.40;;
14187;SDS011;7175;51.978;5.330;2023-11-19T01:10:16;80.93;;;74.93;;
14187;SDS011;7175;51.978;5.330;2023-11-19T01:12:45;78.87;;;72.97;;
14187;SDS011;7175;51.978;5.330;2023-11-19T01:15:15;78.33;;;72.43;;
14187;SDS011;7175;51.978;5.330;2023-11-19T01:17:45;78.73;;;72.83;;
14187;SDS011;7175;51.978;5.330;2023-11-19T01:20:16;78.13;;;72.23;;
14187;SDS011;7175;51.978;5.330;2023-11-19T01:22:44;82.37;;;76.17;;
14187;SDS011;7175;51.978;5.330;2023-11-19T01:25:15;78.73;;;72.80;;
14187;SDS011;7175;51.978;5.330;2023-11-19T01:27:43;81.40;;;75.30;;
14187;SDS011;7175;51.978;5.330;2023-11-19T01:30:11;82.20;;;76.00;;
14187;SDS011;7175;51.978;5.330;2023-11-19T01:32:41;80.13;;;74.13;;
14187;SDS011;7175;51.978;5.330;2023-11-19T01:35:10;79.40;;;73.50;;
14187;SDS011;7175;51.978;5.330;2023-11-19T01:37:38;78.77;;;72.97;;
14187;SDS011;7175;51.978;5.330;2023-11-19T01:40:07;78.53;;;72.73;;
14187;SDS011;7175;51.978;5.330;2023-11-19T01:42:38;79.03;;;73.23;;
14187;SDS011;7175;51.978;5.330;2023-11-19T01:45:07;75.90;;;70.30;;
14187;SDS011;7175;51.978;5.330;2023-11-19T01:47:37;78.57;;;72.77;;
14187;SDS011;7175;51.978;5.330;2023-11-19T01:50:07;77.20;;;71.40;;
14187;SDS011;7175;51.978;5.330;2023-11-19T01:52:36;77.77;;;71.97;;
14187;SDS011;7175;51.978;5.330;2023-11-19T01:55:05;75.40;;;69.80;;
14187;SDS011;7175;51.978;5.330;2023-11-19T01:57:36;76.63;;;70.93;;
14187;SDS011;7175;51.978;5.330;2023-11-19T02:00:07;74.47;;;68.87;;
14187;SDS011;7175;51.978;5.330;2023-11-19T02:02:39;76.00;;;70.40;;
14187;SDS011;7175;51.978;5.330;2023-11-19T02:05:09;73.13;;;67.63;;
14187;SDS011;7175;51.978;5.330;2023-11-19T02:07:39;75.90;;;70.20;;
14187;SDS011;7175;51.978;5.330;2023-11-19T02:10:08;73.03;;;67.50;;
14187;SDS011;7175;51.978;5.330;2023-11-19T02:12:41;74.50;;;68.90;;
14187;SDS011;7175;51.978;5.330;2023-11-19T02:15:10;77.27;;;71.53;;
14187;SDS011;7175;51.978;5.330;2023-11-19T02:17:38;75.20;;;69.60;;
14187;SDS011;7175;51.978;5.330;2023-11-19T02:20:07;77.67;;;71.87;;
14187;SDS011;7175;51.978;5.330;2023-11-19T02:22:39;78.03;;;72.23;;
14187;SDS011;7175;51.978;5.330;2023-11-19T02:25:09;77.60;;;71.90;;
14187;SDS011;7175;51.978;5.330;2023-11-19T02:27:49;75.03;;;69.40;;
14187;SDS011;7175;51.978;5.330;2023-11-19T02:30:22;76.03;;;70.33;;
14187;SDS011;7175;51.978;5.330;2023-11-19T02:32:53;76.07;;;70.37;;
14187;SDS011;7175;51.978;5.330;2023-11-19T02:35:24;78.17;;;72.40;;
14187;SDS011;7175;51.978;5.330;2023-11-19T02:37:54;75.90;;;70.20;;
14187;SDS011;7175;51.978;5.330;2023-11-19T02:40:22;76.70;;;71.00;;
14187;SDS011;7175;51.978;5.330;2023-11-19T02:42:52;80.00;;;74.10;;
14187;SDS011;7175;51.978;5.330;2023-11-19T02:45:22;78.80;;;73.00;;
14187;SDS011;7175;51.978;5.330;2023-11-19T02:47:50;81.40;;;75.40;;
14187;SDS011;7175;51.978;5.330;2023-11-19T02:50:19;84.43;;;78.27;;
14187;SDS011;7175;51.978;5.330;2023-11-19T02:52:52;87.47;;;81.17;;
14187;SDS011;7175;51.978;5.330;2023-11-19T02:55:23;87.23;;;80.93;;
14187;SDS011;7175;51.978;5.330;2023-11-19T02:57:56;86.40;;;80.20;;
14187;SDS011;7175;51.978;5.330;2023-11-19T03:00:26;88.47;;;82.10;;
14187;SDS011;7175;51.978;5.330;2023-11-19T03:03:02;78.80;;;73.00;;
14187;SDS011;7175;51.978;5.330;2023-11-19T03:05:45;82.13;;;76.23;;
14187;SDS011;7175;51.978;5.330;2023-11-19T03:08:14;78.67;;;72.87;;
14187;SDS011;7175;51.978;5.330;2023-11-19T03:10:45;76.00;;;70.30;;
14187;SDS011;7175;51.978;5.330;2023-11-19T03:13:16;88.27;;;82.00;;
14187;SDS011;7175;51.978;5.330;2023-11-19T03:15:45;87.13;;;80.93;;
14187;SDS011;7175;51.978;5.330;2023-11-19T03:18:13;80.60;;;74.67;;
14187;SDS011;7175;51.978;5.330;2023-11-19T03:20:41;80.83;;;74.93;;
14187;SDS011;7175;51.978;5.330;2023-11-19T03:23:09;81.57;;;75.47;;
14187;SDS011;7175;51.978;5.330;2023-11-19T03:25:38;81.27;;;75.27;;
14187;SDS011;7175;51.978;5.330;2023-11-19T03:28:06;81.67;;;75.57;;
14187;SDS011;7175;51.978;5.330;2023-11-19T03:30:36;82.33;;;76.23;;
14187;SDS011;7175;51.978;5.330;2023-11-19T03:33:06;83.07;;;76.87;;
14187;SDS011;7175;51.978;5.330;2023-11-19T03:35:34;83.90;;;77.70;;
14187;SDS011;7175;51.978;5.330;2023-11-19T03:38:02;85.00;;;78.70;;
14187;SDS011;7175;51.978;5.330;2023-11-19T03:40:30;86.50;;;80.20;;
14187;SDS011;7175;51.978;5.330;2023-11-19T03:42:59;85.13;;;78.90;;
14187;SDS011;7175;51.978;5.330;2023-11-19T03:45:27;86.23;;;79.93;;
14187;SDS011;7175;51.978;5.330;2023-11-19T03:47:57;83.13;;;76.93;;
14187;SDS011;7175;51.978;5.330;2023-11-19T03:50:25;84.40;;;78.13;;
14187;SDS011;7175;51.978;5.330;2023-11-19T03:52:53;83.50;;;77.30;;
14187;SDS011;7175;51.978;5.330;2023-11-19T03:55:21;82.07;;;75.97;;
14187;SDS011;7175;51.978;5.330;2023-11-19T03:57:49;85.80;;;79.43;;
14187;SDS011;7175;51.978;5.330;2023-11-19T04:00:17;86.23;;;79.87;;
14187;SDS011;7175;51.978;5.330;2023-11-19T04:02:47;85.00;;;78.70;;
14187;SDS011;7175;51.978;5.330;2023-11-19T04:05:18;84.20;;;78.00;;
14187;SDS011;7175;51.978;5.330;2023-11-19T04:07:46;86.73;;;80.33;;
14187;SDS011;7175;51.978;5.330;2023-11-19T04:10:14;86.67;;;80.30;;
14187;SDS011;7175;51.978;5.330;2023-11-19T04:12:44;88.17;;;81.77;;
14187;SDS011;7175;51.978;5.330;2023-11-19T04:15:12;84.60;;;78.40;;
14187;SDS011;7175;51.978;5.330;2023-11-19T04:17:41;85.73;;;79.43;;
14187;SDS011;7175;51.978;5.330;2023-11-19T04:20:10;81.57;;;75.57;;
14187;SDS011;7175;51.978;5.330;2023-11-19T04:22:42;82.03;;;76.13;;
14187;SDS011;7175;51.978;5.330;2023-11-19T04:25:10;82.50;;;76.60;;
14187;SDS011;7175;51.978;5.330;2023-11-19T04:27:38;84.13;;;78.23;;
14187;SDS011;7175;51.978;5.330;2023-11-19T04:30:07;84.63;;;78.63;;
14187;SDS011;7175;51.978;5.330;2023-11-19T04:32:38;84.80;;;78.80;;
14187;SDS011;7175;51.978;5.330;2023-11-19T04:35:07;85.67;;;79.57;;
14187;SDS011;7175;51.978;5.330;2023-11-19T04:37:36;85.90;;;79.80;;
14187;SDS011;7175;51.978;5.330;2023-11-19T04:40:07;84.90;;;78.90;;
14187;SDS011;7175;51.978;5.330;2023-11-19T04:42:36;81.30;;;75.40;;
14187;SDS011;7175;51.978;5.330;2023-11-19T04:45:07;86.43;;;80.40;;
14187;SDS011;7175;51.978;5.330;2023-11-19T04:47:36;87.37;;;81.27;;
14187;SDS011;7175;51.978;5.330;2023-11-19T04:50:05;87.43;;;81.33;;
14187;SDS011;7175;51.978;5.330;2023-11-19T04:52:37;86.20;;;80.10;;
14187;SDS011;7175;51.978;5.330;2023-11-19T04:55:08;86.00;;;80.00;;
14187;SDS011;7175;51.978;5.330;2023-11-19T04:57:39;87.77;;;81.67;;
14187;SDS011;7175;51.978;5.330;2023-11-19T05:00:07;91.80;;;85.50;;
14187;SDS011;7175;51.978;5.330;2023-11-19T05:02:40;89.30;;;83.10;;
14187;SDS011;7175;51.978;5.330;2023-11-19T05:05:08;86.77;;;80.67;;
14187;SDS011;7175;51.978;5.330;2023-11-19T05:07:38;85.03;;;79.03;;
14187;SDS011;7175;51.978;5.330;2023-11-19T05:10:08;83.47;;;77.57;;
14187;SDS011;7175;51.978;5.330;2023-11-19T05:12:36;84.53;;;78.63;;
14187;SDS011;7175;51.978;5.330;2023-11-19T05:15:05;82.10;;;76.30;;
14187;SDS011;7175;51.978;5.330;2023-11-19T05:17:34;81.17;;;75.37;;
14187;SDS011;7175;51.978;5.330;2023-11-19T05:20:04;82.90;;;77.03;;
14187;SDS011;7175;51.978;5.330;2023-11-19T05:22:39;82.73;;;76.83;;
14187;SDS011;7175;51.978;5.330;2023-11-19T05:25:09;83.17;;;77.33;;
14187;SDS011;7175;51.978;5.330;2023-11-19T05:27:38;81.33;;;75.60;;
14187;SDS011;7175;51.978;5.330;2023-11-19T05:30:06;81.13;;;75.43;;
14187;SDS011;7175;51.978;5.330;2023-11-19T05:32:37;82.43;;;76.63;;
14187;SDS011;7175;51.978;5.330;2023-11-19T05:35:06;77.50;;;71.90;;
14187;SDS011;7175;51.978;5.330;2023-11-19T05:37:36;75.83;;;70.33;;
14187;SDS011;7175;51.978;5.330;2023-11-19T05:40:05;79.20;;;73.60;;
14187;SDS011;7175;51.978;5.330;2023-11-19T05:42:43;75.03;;;69.60;;
14187;SDS011;7175;51.978;5.330;2023-11-19T05:45:14;76.00;;;70.60;;
14187;SDS011;7175;51.978;5.330;2023-11-19T05:47:42;76.30;;;70.90;;
14187;SDS011;7175;51.978;5.330;2023-11-19T05:50:10;75.83;;;70.53;;
14187;SDS011;7175;51.978;5.330;2023-11-19T05:52:41;71.40;;;66.30;;
14187;SDS011;7175;51.978;5.330;2023-11-19T05:55:10;72.17;;;66.97;;
14187;SDS011;7175;51.978;5.330;2023-11-19T05:57:40;73.60;;;68.30;;
14187;SDS011;7175;51.978;5.330;2023-11-19T06:00:13;72.23;;;66.97;;
14187;SDS011;7175;51.978;5.330;2023-11-19T06:02:42;70.23;;;65.13;;
14187;SDS011;7175;51.978;5.330;2023-11-19T06:05:10;74.30;;;69.00;;
14187;SDS011;7175;51.978;5.330;2023-11-19T06:07:39;73.20;;;67.90;;
14187;SDS011;7175;51.978;5.330;2023-11-19T06:10:08;76.57;;;71.17;;
14187;SDS011;7175;51.978;5.330;2023-11-19T06:12:37;75.77;;;70.47;;
14187;SDS011;7175;51.978;5.330;2023-11-19T06:15:08;74.50;;;69.20;;
14187;SDS011;7175;51.978;5.330;2023-11-19T06:17:39;76.00;;;70.63;;
14187;SDS011;7175;51.978;5.330;2023-11-19T06:20:07;76.00;;;70.60;;
14187;SDS011;7175;51.978;5.330;2023-11-19T06:22:38;73.70;;;68.40;;
14187;SDS011;7175;51.978;5.330;2023-11-19T06:25:09;71.43;;;66.13;;
14187;SDS011;7175;51.978;5.330;2023-11-19T06:27:38;72.70;;;67.40;;
14187;SDS011;7175;51.978;5.330;2023-11-19T06:30:07;74.47;;;69.07;;
14187;SDS011;7175;51.978;5.330;2023-11-19T06:32:36;74.80;;;69.40;;
14187;SDS011;7175;51.978;5.330;2023-11-19T06:35:06;72.50;;;67.20;;
14187;SDS011;7175;51.978;5.330;2023-11-19T06:37:35;74.23;;;68.83;;
14187;SDS011;7175;51.978;5.330;2023-11-19T06:40:06;72.87;;;67.50;;
14187;SDS011;7175;51.978;5.330;2023-11-19T06:42:35;76.07;;;70.60;;
14187;SDS011;7175;51.978;5.330;2023-11-19T06:45:05;75.13;;;69.73;;
14187;SDS011;7175;51.978;5.330;2023-11-19T06:47:33;75.00;;;69.60;;
14187;SDS011;7175;51.978;5.330;2023-11-19T06:50:02;77.27;;;71.77;;
14187;SDS011;7175;51.978;5.330;2023-11-19T06:52:33;79.80;;;74.10;;
14187;SDS011;7175;51.978;5.330;2023-11-19T06:55:04;77.23;;;71.63;;
14187;SDS011;7175;51.978;5.330;2023-11-19T06:57:34;75.23;;;69.63;;
14187;SDS011;7175;51.978;5.330;2023-11-19T07:00:03;86.80;;;80.77;;
14187;SDS011;7175;51.978;5.330;2023-11-19T07:02:33;100.17;;;92.70;;
14187;SDS011;7175;51.978;5.330;2023-11-19T07:05:01;98.70;;;91.23;;
14187;SDS011;7175;51.978;5.330;2023-11-19T07:07:31;99.27;;;92.07;;
14187;SDS011;7175;51.978;5.330;2023-11-19T07:10:01;100.90;;;93.70;;
14187;SDS011;7175;51.978;5.330;2023-11-19T07:12:31;101.10;;;93.90;;
14187;SDS011;7175;51.978;5.330;2023-11-19T07:14:59;100.80;;;93.50;;
14187;SDS011;7175;51.978;5.330;2023-11-19T07:17:28;101.17;;;93.93;;
14187;SDS011;7175;51.978;5.330;2023-11-19T07:19:57;97.57;;;90.47;;
14187;SDS011;7175;51.978;5.330;2023-11-19T07:22:25;96.70;;;89.60;;
14187;SDS011;7175;51.978;5.330;2023-11-19T07:24:56;98.30;;;91.10;;
14187;SDS011;7175;51.978;5.330;2023-11-19T07:27:27;94.70;;;87.70;;
14187;SDS011;7175;51.978;5.330;2023-11-19T07:29:55;96.77;;;89.53;;
14187;SDS011;7175;51.978;5.330;2023-11-19T07:32:24;97.63;;;90.43;;
14187;SDS011;7175;51.978;5.330;2023-11-19T07:34:52;97.87;;;90.67;;
14187;SDS011;7175;51.978;5.330;2023-11-19T07:37:20;96.07;;;88.97;;
14187;SDS011;7175;51.978;5.330;2023-11-19T07:39:48;94.03;;;86.93;;
14187;SDS011;7175;51.978;5.330;2023-11-19T07:42:17;92.63;;;85.83;;
14187;SDS011;7175;51.978;5.330;2023-11-19T07:44:46;87.57;;;81.07;;
14187;SDS011;7175;51.978;5.330;2023-11-19T07:47:14;86.57;;;80.17;;
14187;SDS011;7175;51.978;5.330;2023-11-19T07:49:43;83.83;;;77.63;;
14187;SDS011;7175;51.978;5.330;2023-11-19T07:52:11;78.80;;;72.90;;
14187;SDS011;7175;51.978;5.330;2023-11-19T07:54:42;74.53;;;68.87;;
14187;SDS011;7175;51.978;5.330;2023-11-19T07:57:10;74.83;;;69.13;;
14187;SDS011;7175;51.978;5.330;2023-11-19T07:59:38;67.57;;;62.27;;
14187;SDS011;7175;51.978;5.330;2023-11-19T08:02:09;66.53;;;61.33;;
14187;SDS011;7175;51.978;5.330;2023-11-19T08:04:37;65.07;;;59.97;;
14187;SDS011;7175;51.978;5.330;2023-11-19T08:07:11;60.00;;;55.20;;
14187;SDS011;7175;51.978;5.330;2023-11-19T08:09:39;61.37;;;56.50;;
14187;SDS011;7175;51.978;5.330;2023-11-19T08:12:07;62.70;;;57.80;;
14187;SDS011;7175;51.978;5.330;2023-11-19T08:14:35;61.73;;;56.83;;
14187;SDS011;7175;51.978;5.330;2023-11-19T08:17:04;58.87;;;54.17;;
14187;SDS011;7175;51.978;5.330;2023-11-19T08:19:33;54.80;;;50.40;;
14187;SDS011;7175;51.978;5.330;2023-11-19T08:22:09;54.20;;;49.80;;
14187;SDS011;7175;51.978;5.330;2023-11-19T08:24:37;53.37;;;49.07;;
14187;SDS011;7175;51.978;5.330;2023-11-19T08:27:05;53.17;;;48.87;;
14187;SDS011;7175;51.978;5.330;2023-11-19T08:29:33;55.00;;;50.70;;
14187;SDS011;7175;51.978;5.330;2023-11-19T08:32:01;48.57;;;44.57;;
14187;SDS011;7175;51.978;5.330;2023-11-19T08:34:30;50.77;;;46.67;;
14187;SDS011;7175;51.978;5.330;2023-11-19T08:36:59;56.10;;;51.80;;
14187;SDS011;7175;51.978;5.330;2023-11-19T08:39:27;55.13;;;50.93;;
14187;SDS011;7175;51.978;5.330;2023-11-19T08:41:57;50.60;;;46.60;;
14187;SDS011;7175;51.978;5.330;2023-11-19T08:44:25;50.97;;;46.97;;
14187;SDS011;7175;51.978;5.330;2023-11-19T08:46:53;49.97;;;46.07;;
14187;SDS011;7175;51.978;5.330;2023-11-19T08:49:22;49.13;;;45.23;;
14187;SDS011;7175;51.978;5.330;2023-11-19T08:51:50;49.20;;;45.30;;
14187;SDS011;7175;51.978;5.330;2023-11-19T08:54:19;47.97;;;44.17;;
14187;SDS011;7175;51.978;5.330;2023-11-19T08:56:49;49.07;;;45.27;;
14187;SDS011;7175;51.978;5.330;2023-11-19T08:59:17;44.40;;;40.80;;
14187;SDS011;7175;51.978;5.330;2023-11-19T09:01:45;38.57;;;35.27;;
14187;SDS011;7175;51.978;5.330;2023-11-19T09:04:13;35.60;;;32.40;;
14187;SDS011;7175;51.978;5.330;2023-11-19T09:06:42;33.93;;;30.93;;
14187;SDS011;7175;51.978;5.330;2023-11-19T09:09:11;36.57;;;33.47;;
14187;SDS011;7175;51.978;5.330;2023-11-19T09:11:40;39.00;;;35.70;;
14187;SDS011;7175;51.978;5.330;2023-11-19T09:14:09;37.60;;;34.40;;
14187;SDS011;7175;51.978;5.330;2023-11-19T09:16:37;34.63;;;31.63;;
14187;SDS011;7175;51.978;5.330;2023-11-19T09:19:05;33.77;;;30.77;;
14187;SDS011;7175;51.978;5.330;2023-11-19T09:21:36;33.20;;;30.27;;
14187;SDS011;7175;51.978;5.330;2023-11-19T09:24:05;33.37;;;30.47;;
14187;SDS011;7175;51.978;5.330;2023-11-19T09:26:34;33.67;;;30.80;;
14187;SDS011;7175;51.978;5.330;2023-11-19T09:29:04;30.83;;;28.13;;
14187;SDS011;7175;51.978;5.330;2023-11-19T09:31:32;32.20;;;29.40;;
14187;SDS011;7175;51.978;5.330;2023-11-19T09:34:00;31.93;;;29.13;;
14187;SDS011;7175;51.978;5.330;2023-11-19T09:36:29;31.90;;;29.10;;
14187;SDS011;7175;51.978;5.330;2023-11-19T09:38:57;31.00;;;28.30;;
14187;SDS011;7175;51.978;5.330;2023-11-19T09:41:28;30.53;;;27.83;;
14187;SDS011;7175;51.978;5.330;2023-11-19T09:43:58;30.67;;;27.97;;
14187;SDS011;7175;51.978;5.330;2023-11-19T09:46:27;28.90;;;26.30;;
14187;SDS011;7175;51.978;5.330;2023-11-19T09:48:56;28.27;;;25.77;;
14187;SDS011;7175;51.978;5.330;2023-11-19T09:51:25;29.13;;;26.53;;
14187;SDS011;7175;51.978;5.330;2023-11-19T09:53:54;28.50;;;26.00;;
14187;SDS011;7175;51.978;5.330;2023-11-19T09:56:22;27.40;;;25.00;;
14187;SDS011;7175;51.978;5.330;2023-11-19T09:58:50;25.87;;;23.47;;
14187;SDS011;7175;51.978;5.330;2023-11-19T10:01:19;25.07;;;22.73;;
14187;SDS011;7175;51.978;5.330;2023-11-19T10:03:55;25.93;;;23.63;;
14187;SDS011;7175;51.978;5.330;2023-11-19T10:06:24;28.70;;;26.20;;
14187;SDS011;7175;51.978;5.330;2023-11-19T10:08:53;27.20;;;24.80;;
14187;SDS011;7175;51.978;5.330;2023-11-19T10:11:23;27.67;;;25.27;;
14187;SDS011;7175;51.978;5.330;2023-11-19T10:13:54;27.37;;;24.97;;
14187;SDS011;7175;51.978;5.330;2023-11-19T10:16:27;26.97;;;24.57;;
14187;SDS011;7175;51.978;5.330;2023-11-19T10:18:59;27.90;;;25.40;;
14187;SDS011;7175;51.978;5.330;2023-11-19T10:21:27;28.07;;;25.57;;
14187;SDS011;7175;51.978;5.330;2023-11-19T10:23:58;28.17;;;25.67;;
14187;SDS011;7175;51.978;5.330;2023-11-19T10:26:27;27.77;;;25.37;;
14187;SDS011;7175;51.978;5.330;2023-11-19T10:28:56;26.87;;;24.47;;
14187;SDS011;7175;51.978;5.330;2023-11-19T10:31:24;26.70;;;24.40;;
14187;SDS011;7175;51.978;5.330;2023-11-19T10:33:53;26.13;;;23.83;;
14187;SDS011;7175;51.978;5.330;2023-11-19T10:36:23;25.37;;;23.17;;
14187;SDS011;7175;51.978;5.330;2023-11-19T10:39:05;24.30;;;22.10;;
14187;SDS011;7175;51.978;5.330;2023-11-19T10:41:35;24.47;;;22.27;;
14187;SDS011;7175;51.978;5.330;2023-11-19T10:44:03;25.13;;;22.93;;
14187;SDS011;7175;51.978;5.330;2023-11-19T10:46:36;24.30;;;22.13;;
14187;SDS011;7175;51.978;5.330;2023-11-19T10:49:06;24.50;;;22.30;;
14187;SDS011;7175;51.978;5.330;2023-11-19T10:51:36;23.67;;;21.57;;
14187;SDS011;7175;51.978;5.330;2023-11-19T10:54:10;23.37;;;21.27;;
14187;SDS011;7175;51.978;5.330;2023-11-19T10:56:40;22.87;;;20.80;;
14187;SDS011;7175;51.978;5.330;2023-11-19T10:59:12;22.90;;;20.83;;
14187;SDS011;7175;51.978;5.330;2023-11-19T11:01:45;22.77;;;20.77;;
14187;SDS011;7175;51.978;5.330;2023-11-19T11:04:19;23.00;;;20.97;;
14187;SDS011;7175;51.978;5.330;2023-11-19T11:06:57;23.07;;;20.97;;
14187;SDS011;7175;51.978;5.330;2023-11-19T11:09:27;23.03;;;20.93;;
14187;SDS011;7175;51.978;5.330;2023-11-19T11:11:55;23.70;;;21.60;;
14187;SDS011;7175;51.978;5.330;2023-11-19T11:14:25;24.70;;;22.50;;
14187;SDS011;7175;51.978;5.330;2023-11-19T11:16:55;24.83;;;22.63;;
14187;SDS011;7175;51.978;5.330;2023-11-19T11:19:25;24.47;;;22.27;;
14187;SDS011;7175;51.978;5.330;2023-11-19T11:21:54;23.23;;;21.13;;
14187;SDS011;7175;51.978;5.330;2023-11-19T11:24:30;25.47;;;23.27;;
14187;SDS011;7175;51.978;5.330;2023-11-19T11:30:11;22.00;;;19.90;;
14187;SDS011;7175;51.978;5.330;2023-11-19T11:32:50;22.17;;;20.17;;
14187;SDS011;7175;51.978;5.330;2023-11-19T11:35:28;23.33;;;21.23;;
14187;SDS011;7175;51.978;5.330;2023-11-19T11:38:06;22.27;;;20.17;;
14187;SDS011;7175;51.978;5.330;2023-11-19T11:40:36;22.27;;;20.17;;
14187;SDS011;7175;51.978;5.330;2023-11-19T11:43:04;23.03;;;20.87;;
14187;SDS011;7175;51.978;5.330;2023-11-19T11:49:13;24.60;;;22.40;;
14187;SDS011;7175;51.978;5.330;2023-11-19T11:54:35;24.30;;;22.20;;
14187;SDS011;7175;51.978;5.330;2023-11-19T11:57:04;22.47;;;20.47;;
14187;SDS011;7175;51.978;5.330;2023-11-19T11:59:50;23.80;;;21.70;;
14187;SDS011;7175;51.978;5.330;2023-11-19T12:02:19;23.37;;;21.27;;
14187;SDS011;7175;51.978;5.330;2023-11-19T12:04:51;24.10;;;22.00;;
14187;SDS011;7175;51.978;5.330;2023-11-19T12:07:21;23.00;;;21.00;;
14187;SDS011;7175;51.978;5.330;2023-11-19T12:10:05;23.43;;;21.37;;
14187;SDS011;7175;51.978;5.330;2023-11-19T12:12:35;23.37;;;21.27;;
14187;SDS011;7175;51.978;5.330;2023-11-19T12:15:08;21.97;;;19.97;;
14187;SDS011;7175;51.978;5.330;2023-11-19T12:17:47;23.17;;;21.07;;
14187;SDS011;7175;51.978;5.330;2023-11-19T12:20:23;22.97;;;20.87;;
14187;SDS011;7175;51.978;5.330;2023-11-19T12:22:55;23.50;;;21.40;;
14187;SDS011;7175;51.978;5.330;2023-11-19T12:25:28;22.77;;;20.77;;
14187;SDS011;7175;51.978;5.330;2023-11-19T12:28:02;22.87;;;20.87;;
14187;SDS011;7175;51.978;5.330;2023-11-19T12:30:35;22.30;;;20.33;;
14187;SDS011;7175;51.978;5.330;2023-11-19T12:33:07;22.37;;;20.37;;
14187;SDS011;7175;51.978;5.330;2023-11-19T12:35:38;22.53;;;20.53;;
14187;SDS011;7175;51.978;5.330;2023-11-19T12:38:17;22.37;;;20.37;;
14187;SDS011;7175;51.978;5.330;2023-11-19T12:41:03;21.97;;;19.97;;
14187;SDS011;7175;51.978;5.330;2023-11-19T12:43:38;22.73;;;20.73;;
14187;SDS011;7175;51.978;5.330;2023-11-19T12:46:18;23.20;;;21.13;;
14187;SDS011;7175;51.978;5.330;2023-11-19T12:48:49;22.63;;;20.63;;
14187;SDS011;7175;51.978;5.330;2023-11-19T12:51:19;21.67;;;19.77;;
14187;SDS011;7175;51.978;5.330;2023-11-19T12:54:02;22.73;;;20.73;;
14187;SDS011;7175;51.978;5.330;2023-11-19T12:56:32;22.83;;;20.80;;
14187;SDS011;7175;51.978;5.330;2023-11-19T12:59:11;20.63;;;18.73;;
14187;SDS011;7175;51.978;5.330;2023-11-19T13:01:39;20.93;;;19.03;;
14187;SDS011;7175;51.978;5.330;2023-11-19T13:04:15;20.57;;;18.67;;
14187;SDS011;7175;51.978;5.330;2023-11-19T13:06:49;21.00;;;19.10;;
14187;SDS011;7175;51.978;5.330;2023-11-19T13:09:21;21.63;;;19.63;;
14187;SDS011;7175;51.978;5.330;2023-11-19T13:11:52;21.80;;;19.80;;
14187;SDS011;7175;51.978;5.330;2023-11-19T13:14:21;21.77;;;19.73;;
14187;SDS011;7175;51.978;5.330;2023-11-19T13:16:50;21.93;;;19.83;;
14187;SDS011;7175;51.978;5.330;2023-11-19T13:19:20;23.63;;;21.47;;
14187;SDS011;7175;51.978;5.330;2023-11-19T13:21:53;23.63;;;21.43;;
14187;SDS011;7175;51.978;5.330;2023-11-19T13:24:21;23.97;;;21.77;;
14187;SDS011;7175;51.978;5.330;2023-11-19T13:26:49;24.07;;;21.87;;
14187;SDS011;7175;51.978;5.330;2023-11-19T13:29:19;23.43;;;21.23;;
14187;SDS011;7175;51.978;5.330;2023-11-19T13:31:47;22.77;;;20.67;;
14187;SDS011;7175;51.978;5.330;2023-11-19T13:34:16;23.83;;;21.63;;
14187;SDS011;7175;51.978;5.330;2023-11-19T13:36:44;26.63;;;24.27;;
14187;SDS011;7175;51.978;5.330;2023-11-19T13:39:13;26.10;;;23.80;;
14187;SDS011;7175;51.978;5.330;2023-11-19T13:41:49;25.13;;;22.83;;
14187;SDS011;7175;51.978;5.330;2023-11-19T13:44:18;25.20;;;22.90;;
14187;SDS011;7175;51.978;5.330;2023-11-19T13:46:48;24.47;;;22.17;;
14187;SDS011;7175;51.978;5.330;2023-11-19T13:49:16;29.23;;;26.73;;
14187;SDS011;7175;51.978;5.330;2023-11-19T13:51:49;30.40;;;27.80;;
14187;SDS011;7175;51.978;5.330;2023-11-19T13:54:17;26.90;;;24.40;;
14187;SDS011;7175;51.978;5.330;2023-11-19T13:56:46;27.60;;;25.17;;
14187;SDS011;7175;51.978;5.330;2023-11-19T13:59:15;27.40;;;24.90;;
14187;SDS011;7175;51.978;5.330;2023-11-19T14:01:46;25.57;;;23.17;;
14187;SDS011;7175;51.978;5.330;2023-11-19T14:04:14;25.37;;;22.97;;
14187;SDS011;7175;51.978;5.330;2023-11-19T14:06:44;25.10;;;22.80;;
14187;SDS011;7175;51.978;5.330;2023-11-19T14:09:13;24.63;;;22.33;;
14187;SDS011;7175;51.978;5.330;2023-11-19T14:11:45;24.73;;;22.43;;
14187;SDS011;7175;51.978;5.330;2023-11-19T14:14:14;24.40;;;22.10;;
14187;SDS011;7175;51.978;5.330;2023-11-19T14:16:48;24.03;;;21.73;;
14187;SDS011;7175;51.978;5.330;2023-11-19T14:19:39;24.33;;;22.03;;
14187;SDS011;7175;51.978;5.330;2023-11-19T14:22:07;23.13;;;20.97;;
14187;SDS011;7175;51.978;5.330;2023-11-19T14:24:36;23.90;;;21.70;;
14187;SDS011;7175;51.978;5.330;2023-11-19T14:27:04;24.10;;;21.90;;
14187;SDS011;7175;51.978;5.330;2023-11-19T14:29:35;24.17;;;21.97;;
14187;SDS011;7175;51.978;5.330;2023-11-19T14:32:05;23.90;;;21.70;;
14187;SDS011;7175;51.978;5.330;2023-11-19T14:34:33;23.87;;;21.67;;
14187;SDS011;7175;51.978;5.330;2023-11-19T14:37:02;23.60;;;21.40;;
14187;SDS011;7175;51.978;5.330;2023-11-19T14:39:30;24.60;;;22.30;;
14187;SDS011;7175;51.978;5.330;2023-11-19T14:41:58;25.60;;;23.30;;
14187;SDS011;7175;51.978;5.330;2023-11-19T14:44:31;25.43;;;23.13;;
14187;SDS011;7175;51.978;5.330;2023-11-19T14:46:59;26.27;;;23.97;;
14187;SDS011;7175;51.978;5.330;2023-11-19T14:49:30;25.70;;;23.40;;
14187;SDS011;7175;51.978;5.330;2023-11-19T14:51:58;24.90;;;22.63;;
14187;SDS011;7175;51.978;5.330;2023-11-19T14:54:29;25.67;;;23.37;;
14187;SDS011;7175;51.978;5.330;2023-11-19T14:56:57;25.80;;;23.50;;
14187;SDS011;7175;51.978;5.330;2023-11-19T14:59:26;26.03;;;23.73;;